M.t. King Everest — V7DB8 — position and weather

sailwx.info

Track history (hours):
 
Tides and Currents Weather Stations Pressure Air Temp Water Temp Dewpoint Dewpoint Depression Visibility Wind Speed Wind Dir Waves Ship Positions

M.t. King Everest

Last reported at 2015-Feb-01 09:23 UTC. Time now 2015-Feb-01 11:43 UTC.
Position N 51°54' E 003°32'.

Length 181 m; draft 11 m.

Type: Ship. MMSI: 538090267.

Date/timePositionNaut miles runAvg speedWind from/ knotsBaromVisibWave heightAir tempDewpointWater temp
2015-Feb-01 09:23N 51°54' E 003°32'0 0.0
2015-Feb-01 08:20N 51°54' E 003°32'0 0.1
2015-Feb-01 07:32N 51°54' E 003°32'0 0.0
2015-Feb-01 06:26N 51°54' E 003°32'0 0.1
2015-Feb-01 05:29N 51°54' E 003°32'0 0.0
2015-Feb-01 03:32N 51°54' E 003°32'0 0.0
2015-Feb-01 02:32N 51°54' E 003°32'0 0.1
2015-Feb-01 00:29N 51°54' E 003°32'0 0.0
2015-Jan-31 23:32N 51°54' E 003°32'0 0.0
2015-Jan-31 22:29N 51°54' E 003°32'0 0.1
2015-Jan-31 21:29N 51°54' E 003°32'0 0.1
2015-Jan-31 20:20N 51°54' E 003°32'0 0.0
2015-Jan-31 19:23N 51°54' E 003°32'0 0.0
2015-Jan-31 18:29N 51°54' E 003°32'0 0.0
2015-Jan-31 17:32N 51°54' E 003°32'0 0.0
2015-Jan-31 16:32N 51°54' E 003°32'0 0.1
2015-Jan-31 15:26N 51°54' E 003°32'0 0.1
2015-Jan-31 14:23N 51°54' E 003°32'0 0.0
2015-Jan-31 12:32N 51°54' E 003°32'0 0.0
2015-Jan-31 11:14N 51°54' E 003°32'0 0.0
2015-Jan-31 10:08N 51°54' E 003°32'0 0.1
2015-Jan-31 09:14N 51°54' E 003°32'0 0.1
2015-Jan-31 08:14N 51°54' E 003°32'0 0.0
2015-Jan-31 06:23N 51°54' E 003°32'0 0.1
2015-Jan-31 04:14N 51°54' E 003°32'0 0.1
2015-Jan-31 03:23N 51°54' E 003°32'0 0.0
2015-Jan-31 02:08N 51°54' E 003°32'0 0.0
2015-Jan-30 23:14N 51°54' E 003°32'0 0.1
2015-Jan-30 22:23N 51°54' E 003°32'0 0.1
2015-Jan-30 21:32N 51°54' E 003°32'0 0.1
2015-Jan-30 20:32N 51°54' E 003°32'0 0.0
2015-Jan-30 15:17N 51°54' E 003°32'0 0.1
2015-Jan-30 14:17N 51°54' E 003°32'0 0.0
2015-Jan-30 10:23N 51°54' E 003°32'0 0.0
2015-Jan-30 09:29N 51°54' E 003°32'0 0.1
2015-Jan-30 07:11N 51°54' E 003°32'0 0.0
2015-Jan-30 03:17N 51°54' E 003°32'0 0.1
2015-Jan-30 00:29N 51°54' E 003°32'0 0.0
2015-Jan-29 20:23N 51°54' E 003°32'0 0.1
2015-Jan-29 19:17N 51°54' E 003°32'5 2.8
2015-Jan-29 17:28N 51°55' E 003°24'136 5.0
2015-Jan-28 14:30N 54°02' E 004°46'5 4.8
2015-Jan-28 13:33N 54°01' E 004°53'7 6.6
2015-Jan-28 12:33N 54°07' E 004°59'8 7.2
2015-Jan-28 11:25N 54°15' E 004°60'6 7.2
2015-Jan-28 10:33N 54°21' E 005°02'27710.2
2015-Jan-27 07:22N 57°52' E 010°22'1011.4
2015-Jan-27 06:29N 57°51' E 010°41'1111.6
2015-Jan-27 05:33N 57°44' E 010°56'1211.8
2015-Jan-27 04:33N 57°35' E 011°12'1211.8
2015-Jan-27 03:33N 57°27' E 011°27'1212.0
2015-Jan-27 02:33N 57°16' E 011°34'1211.9
2015-Jan-27 01:33N 57°04' E 011°42'1212.2
2015-Jan-27 00:33N 56°53' E 011°49'10 9.9
2015-Jan-26 23:33N 56°43' E 011°49'12910.7
2015-Jan-26 11:33N 54°36' E 011°07'1312.6
2015-Jan-26 10:33N 54°31' E 011°27'1111.4
2015-Jan-26 09:33N 54°26' E 011°45'1211.7
2015-Jan-26 08:33N 54°26' E 012°05'1111.0
2015-Jan-26 07:33N 54°35' E 012°16'1212.1
2015-Jan-26 06:33N 54°43' E 012°32'2812.2
2015-Jan-26 04:17N 54°54' E 013°16'912.3
2015-Jan-26 03:33N 54°57' E 013°30'1312.4
2015-Jan-26 02:32N 55°01' E 013°51'1311.2
2015-Jan-26 01:24N 55°08' E 014°10'1312.4
2015-Jan-26 00:20N 55°18' E 014°24'1012.7
2015-Jan-25 23:33N 55°25' E 014°37'1312.7
2015-Jan-25 22:33N 55°33' E 014°56'1412.6
2015-Jan-25 21:27N 55°39' E 015°17'34311.8
2015-Jan-24 16:19N 59°35' E 023°02'911.6
2015-Jan-24 15:32N 59°38' E 023°20'1211.7
2015-Jan-24 14:32N 59°41' E 023°42'1411.9
2015-Jan-24 13:21N 59°45' E 024°09'1512.0
2015-Jan-24 12:04N 59°49' E 024°38'5512.3
2015-Jan-24 07:33N 60°00' E 026°26'1312.5
2015-Jan-24 06:33N 60°00' E 026°51'2512.0
2015-Jan-24 04:28N 60°10' E 027°38'7610.5
2015-Jan-23 21:13N 59°54' E 030°07'2 0.1
2015-Jan-22 15:34N 59°53' E 030°10'  
Track history (hours):
 
Tides and Currents Weather Stations Pressure Air Temp Water Temp Dewpoint Dewpoint Depression Visibility Wind Speed Wind Dir Waves Ship Positions

M.t. King Everest

Last reported at 2015-Feb-01 09:23 UTC. Time now 2015-Feb-01 11:43 UTC.
Position N 51°54' E 003°32'.

Length 181 m; draft 11 m.

Type: Ship. MMSI: 538090267.

Date/timePositionNaut miles runAvg speedWind from/ knotsBaromVisibWave heightAir tempDewpointWater temp
2015-Feb-01 09:23N 51°54' E 003°32'0 0.0
2015-Feb-01 08:20N 51°54' E 003°32'0 0.1
2015-Feb-01 07:32N 51°54' E 003°32'0 0.0
2015-Feb-01 06:26N 51°54' E 003°32'0 0.1
2015-Feb-01 05:29N 51°54' E 003°32'0 0.0
2015-Feb-01 03:32N 51°54' E 003°32'0 0.0
2015-Feb-01 02:32N 51°54' E 003°32'0 0.1
2015-Feb-01 00:29N 51°54' E 003°32'0 0.0
2015-Jan-31 23:32N 51°54' E 003°32'0 0.0
2015-Jan-31 22:29N 51°54' E 003°32'0 0.1
2015-Jan-31 21:29N 51°54' E 003°32'0 0.1
2015-Jan-31 20:20N 51°54' E 003°32'0 0.0
2015-Jan-31 19:23N 51°54' E 003°32'0 0.0
2015-Jan-31 18:29N 51°54' E 003°32'0 0.0
2015-Jan-31 17:32N 51°54' E 003°32'0 0.0
2015-Jan-31 16:32N 51°54' E 003°32'0 0.1
2015-Jan-31 15:26N 51°54' E 003°32'0 0.1
2015-Jan-31 14:23N 51°54' E 003°32'0 0.0
2015-Jan-31 12:32N 51°54' E 003°32'0 0.0
2015-Jan-31 11:14N 51°54' E 003°32'0 0.0
2015-Jan-31 10:08N 51°54' E 003°32'0 0.1
2015-Jan-31 09:14N 51°54' E 003°32'0 0.1
2015-Jan-31 08:14N 51°54' E 003°32'0 0.0
2015-Jan-31 06:23N 51°54' E 003°32'0 0.1
2015-Jan-31 04:14N 51°54' E 003°32'0 0.1
2015-Jan-31 03:23N 51°54' E 003°32'0 0.0
2015-Jan-31 02:08N 51°54' E 003°32'0 0.0
2015-Jan-30 23:14N 51°54' E 003°32'0 0.1
2015-Jan-30 22:23N 51°54' E 003°32'0 0.1
2015-Jan-30 21:32N 51°54' E 003°32'0 0.1
2015-Jan-30 20:32N 51°54' E 003°32'0 0.0
2015-Jan-30 15:17N 51°54' E 003°32'0 0.1
2015-Jan-30 14:17N 51°54' E 003°32'0 0.0
2015-Jan-30 10:23N 51°54' E 003°32'0 0.0
2015-Jan-30 09:29N 51°54' E 003°32'0 0.1
2015-Jan-30 07:11N 51°54' E 003°32'0 0.0
2015-Jan-30 03:17N 51°54' E 003°32'0 0.1
2015-Jan-30 00:29N 51°54' E 003°32'0 0.0
2015-Jan-29 20:23N 51°54' E 003°32'0 0.1
2015-Jan-29 19:17N 51°54' E 003°32'5 2.8
2015-Jan-29 17:28N 51°55' E 003°24'136 5.0
2015-Jan-28 14:30N 54°02' E 004°46'5 4.8
2015-Jan-28 13:33N 54°01' E 004°53'7 6.6
2015-Jan-28 12:33N 54°07' E 004°59'8 7.2
2015-Jan-28 11:25N 54°15' E 004°60'6 7.2
2015-Jan-28 10:33N 54°21' E 005°02'27710.2
2015-Jan-27 07:22N 57°52' E 010°22'1011.4
2015-Jan-27 06:29N 57°51' E 010°41'1111.6
2015-Jan-27 05:33N 57°44' E 010°56'1211.8
2015-Jan-27 04:33N 57°35' E 011°12'1211.8
2015-Jan-27 03:33N 57°27' E 011°27'1212.0
2015-Jan-27 02:33N 57°16' E 011°34'1211.9
2015-Jan-27 01:33N 57°04' E 011°42'1212.2
2015-Jan-27 00:33N 56°53' E 011°49'10 9.9
2015-Jan-26 23:33N 56°43' E 011°49'12910.7
2015-Jan-26 11:33N 54°36' E 011°07'1312.6
2015-Jan-26 10:33N 54°31' E 011°27'1111.4
2015-Jan-26 09:33N 54°26' E 011°45'1211.7
2015-Jan-26 08:33N 54°26' E 012°05'1111.0
2015-Jan-26 07:33N 54°35' E 012°16'1212.1
2015-Jan-26 06:33N 54°43' E 012°32'2812.2
2015-Jan-26 04:17N 54°54' E 013°16'912.3
2015-Jan-26 03:33N 54°57' E 013°30'1312.4
2015-Jan-26 02:32N 55°01' E 013°51'1311.2
2015-Jan-26 01:24N 55°08' E 014°10'1312.4
2015-Jan-26 00:20N 55°18' E 014°24'1012.7
2015-Jan-25 23:33N 55°25' E 014°37'1312.7
2015-Jan-25 22:33N 55°33' E 014°56'1412.6
2015-Jan-25 21:27N 55°39' E 015°17'34311.8
2015-Jan-24 16:19N 59°35' E 023°02'911.6
2015-Jan-24 15:32N 59°38' E 023°20'1211.7
2015-Jan-24 14:32N 59°41' E 023°42'1411.9
2015-Jan-24 13:21N 59°45' E 024°09'1512.0
2015-Jan-24 12:04N 59°49' E 024°38'5512.3
2015-Jan-24 07:33N 60°00' E 026°26'1312.5
2015-Jan-24 06:33N 60°00' E 026°51'2512.0
2015-Jan-24 04:28N 60°10' E 027°38'7610.5
2015-Jan-23 21:13N 59°54' E 030°07'2 0.1
2015-Jan-22 15:34N 59°53' E 030°10'  

Dump ship's entire track history